createdAt,value
2019-02-25T00:02:14.946Z,61.50
2019-02-25T00:05:03.137Z,57.50
2019-02-25T00:07:34.008Z,65.00
2019-02-25T00:10:05.322Z,55.90
2019-02-25T00:12:57.122Z,63.50
2019-02-25T00:15:27.471Z,59.30
2019-02-25T00:18:13.329Z,78.10
2019-02-25T00:20:47.333Z,71.30
2019-02-25T00:23:36.741Z,78.80
2019-02-25T00:26:08.597Z,78.20
2019-02-25T00:28:51.547Z,71.70
2019-02-25T00:31:28.461Z,76.30
2019-02-25T00:33:59.537Z,80.90
2019-02-25T00:36:48.394Z,71.90
2019-02-25T00:39:21.893Z,68.70
2019-02-25T00:41:57.231Z,76.50
2019-02-25T00:44:42.300Z,74.00
2019-02-25T00:47:13.511Z,76.60
2019-02-25T00:49:51.651Z,69.20
2019-02-25T00:52:22.716Z,69.30
2019-02-25T00:58:42.135Z,63.50
2019-02-25T01:02:04.499Z,77.60
2019-02-25T01:04:41.510Z,60.90
2019-02-25T01:07:18.692Z,57.90
2019-02-25T01:09:48.704Z,60.40
2019-02-25T01:12:18.520Z,63.50
2019-02-25T01:14:48.535Z,61.80
2019-02-25T01:17:18.240Z,60.50
2019-02-25T01:19:48.262Z,62.30
2019-02-25T01:22:18.587Z,64.00
2019-02-25T01:24:48.399Z,64.70
2019-02-25T01:27:18.202Z,66.00
2019-02-25T01:29:48.074Z,71.40
2019-02-25T01:32:18.000Z,64.90
2019-02-25T01:34:47.639Z,66.70
2019-02-25T01:37:17.561Z,65.10
2019-02-25T01:39:47.369Z,68.00
2019-02-25T01:42:17.388Z,65.10
2019-02-25T01:44:47.140Z,66.90
2019-02-25T01:47:16.856Z,67.20
2019-02-25T01:49:46.763Z,68.30
2019-02-25T01:52:17.141Z,67.40
2019-02-25T01:54:47.206Z,67.50
2019-02-25T01:57:17.070Z,67.80
2019-02-25T01:59:46.782Z,68.00
2019-02-25T02:02:17.058Z,70.90
2019-02-25T02:04:47.168Z,74.80
2019-02-25T02:07:16.724Z,72.70
2019-02-25T02:09:46.491Z,72.10
2019-02-25T02:12:16.295Z,73.60
2019-02-25T02:14:46.491Z,73.10
2019-02-25T02:17:15.581Z,75.60
2019-02-25T02:19:44.665Z,75.10
2019-02-25T02:22:13.730Z,77.50
2019-02-25T02:24:42.831Z,76.80
2019-02-25T02:27:11.885Z,78.00
2019-02-25T02:29:40.986Z,78.10
2019-02-25T02:32:10.259Z,79.10
2019-02-25T02:34:39.378Z,80.00
2019-02-25T02:37:08.445Z,79.30
2019-02-25T02:39:37.540Z,81.00
2019-02-25T02:42:17.202Z,82.10
2019-02-25T02:44:48.625Z,85.00
2019-02-25T02:47:27.317Z,84.20
2019-02-25T02:49:56.446Z,85.00
2019-02-25T02:52:25.523Z,83.50
2019-02-25T02:54:54.597Z,85.60
2019-02-25T02:57:23.585Z,87.00
2019-02-25T02:59:52.660Z,86.90
2019-02-25T03:02:21.741Z,87.80
2019-02-25T03:04:50.858Z,89.70
2019-02-25T03:07:19.902Z,88.10
2019-02-25T03:09:48.988Z,90.00
2019-02-25T03:12:18.038Z,90.20
2019-02-25T03:14:47.157Z,90.50
2019-02-25T03:17:16.210Z,90.00
2019-02-25T03:19:45.312Z,89.70
2019-02-25T03:22:14.367Z,90.60
2019-02-25T03:24:43.461Z,91.40
2019-02-25T03:27:12.357Z,91.30
2019-02-25T03:29:41.420Z,92.10
2019-02-25T03:32:10.529Z,92.50
2019-02-25T03:34:39.592Z,92.70
2019-02-25T03:37:08.646Z,92.50
2019-02-25T03:39:37.728Z,93.30
2019-02-25T03:42:06.781Z,92.50
2019-02-25T03:44:35.794Z,93.20
2019-02-25T03:47:04.864Z,93.40
2019-02-25T03:49:33.946Z,94.20
2019-02-25T03:52:02.991Z,94.70
2019-02-25T03:54:32.056Z,94.00
2019-02-25T03:57:01.422Z,94.30
2019-02-25T03:59:30.498Z,94.90
2019-02-25T04:01:59.576Z,95.00
2019-02-25T04:04:28.665Z,95.90
2019-02-25T04:06:57.745Z,95.60
2019-02-25T04:09:26.830Z,95.90
2019-02-25T04:11:55.929Z,95.60
2019-02-25T04:14:25.000Z,95.90
2019-02-25T04:16:54.093Z,95.70
2019-02-25T04:19:23.149Z,96.10
2019-02-25T04:21:52.243Z,96.40
2019-02-25T04:24:21.311Z,96.80
2019-02-25T04:26:50.403Z,96.20
2019-02-25T04:29:19.470Z,95.50
2019-02-25T04:31:48.540Z,96.60
2019-02-25T04:34:17.607Z,96.60
2019-02-25T04:36:46.625Z,96.50
2019-02-25T04:39:15.675Z,95.50
2019-02-25T04:41:44.724Z,95.90
2019-02-25T04:44:13.759Z,95.70
2019-02-25T04:46:42.832Z,95.00
2019-02-25T04:49:11.911Z,96.00
2019-02-25T04:51:40.999Z,96.30
2019-02-25T04:54:10.057Z,97.20
2019-02-25T04:56:39.139Z,96.80
2019-02-25T04:59:08.209Z,97.60
2019-02-25T05:01:37.319Z,97.50
2019-02-25T05:04:06.454Z,96.70
2019-02-25T05:06:35.602Z,97.40
2019-02-25T05:09:06.353Z,96.70
2019-02-25T05:11:36.048Z,96.40
2019-02-25T05:14:05.130Z,96.20
2019-02-25T05:16:34.292Z,96.20
2019-02-25T05:19:03.380Z,96.00
2019-02-25T05:21:32.426Z,95.10
2019-02-25T05:24:01.589Z,95.30
2019-02-25T05:26:30.693Z,94.90
2019-02-25T05:28:59.678Z,94.30
2019-02-25T05:31:28.786Z,94.90
2019-02-25T05:33:57.864Z,96.30
2019-02-25T05:36:26.941Z,95.10
2019-02-25T05:38:56.024Z,94.80
2019-02-25T05:41:25.111Z,96.50
2019-02-25T05:43:54.222Z,95.00
2019-02-25T05:46:23.398Z,96.00
2019-02-25T05:48:52.539Z,95.00
2019-02-25T05:51:21.708Z,95.40
2019-02-25T05:53:50.797Z,95.10
2019-02-25T05:56:19.878Z,95.60
2019-02-25T05:58:48.924Z,95.00
2019-02-25T06:01:18.106Z,95.70
2019-02-25T06:03:47.169Z,94.90
2019-02-25T06:06:16.182Z,97.20
2019-02-25T06:08:45.249Z,95.20
2019-02-25T06:11:14.252Z,95.10
2019-02-25T06:13:43.341Z,94.60
2019-02-25T06:16:12.456Z,95.00
2019-02-25T06:18:41.514Z,98.80
2019-02-25T06:21:10.592Z,92.50
2019-02-25T06:23:39.596Z,91.70
2019-02-25T06:26:08.896Z,85.60
2019-02-25T06:28:37.977Z,97.50
2019-02-25T06:31:07.072Z,95.80
2019-02-25T06:33:36.068Z,95.70
2019-02-25T06:36:05.208Z,96.00
2019-02-25T06:38:34.204Z,97.80
2019-02-25T06:41:03.268Z,88.60
2019-02-25T06:43:32.323Z,96.40
2019-02-25T06:46:01.334Z,96.20
2019-02-25T06:48:30.399Z,94.80
2019-02-25T06:50:59.491Z,90.60
2019-02-25T06:53:28.570Z,79.30
2019-02-25T06:55:57.606Z,87.70
2019-02-25T06:58:26.692Z,87.40
2019-02-25T07:00:55.789Z,82.50
2019-02-25T07:03:24.873Z,76.90
2019-02-25T07:06:17.120Z,92.30
2019-02-25T07:09:14.011Z,72.60
2019-02-25T07:12:00.202Z,70.30
2019-02-25T07:14:43.189Z,91.50
2019-02-25T07:17:29.847Z,73.10
2019-02-25T07:20:16.631Z,91.40
2019-02-25T07:22:56.623Z,77.80
2019-02-25T07:25:47.451Z,76.70
2019-02-25T07:28:33.679Z,86.20
2019-02-25T07:31:13.977Z,95.00
2019-02-25T07:33:59.147Z,66.80
2019-02-25T07:36:46.099Z,84.50
2019-02-25T07:39:23.519Z,94.90
2019-02-25T07:42:20.558Z,91.60
2019-02-25T07:45:17.055Z,91.10
2019-02-25T07:48:06.840Z,81.00
2019-02-25T07:51:00.383Z,74.00
2019-02-25T07:53:50.532Z,68.70
2019-02-25T07:56:47.701Z,75.70
2019-02-25T07:59:47.736Z,71.40
2019-02-25T08:02:35.893Z,57.40
2019-02-25T08:05:23.241Z,55.80
2019-02-25T08:08:11.082Z,58.70
2019-02-25T08:11:05.232Z,56.60
2019-02-25T08:13:39.789Z,58.70
2019-02-25T08:16:17.918Z,54.90
2019-02-25T08:19:12.066Z,55.70
2019-02-25T08:21:52.198Z,59.30
2019-02-25T08:24:43.156Z,51.60
2019-02-25T08:27:19.385Z,56.60
2019-02-25T08:30:04.401Z,57.50
2019-02-25T08:32:52.558Z,54.40
2019-02-25T08:36:28.068Z,55.10
2019-02-25T08:39:07.640Z,51.40
2019-02-25T08:41:45.189Z,54.40
2019-02-25T08:44:36.365Z,52.70
2019-02-25T08:47:21.494Z,54.00
2019-02-25T08:49:53.704Z,54.60
2019-02-25T08:52:22.835Z,65.80
2019-02-25T08:54:51.999Z,54.60
2019-02-25T08:57:22.027Z,56.70
2019-02-25T08:59:51.133Z,59.20
2019-02-25T09:02:20.256Z,56.20
2019-02-25T09:04:49.402Z,53.60
2019-02-25T09:07:18.514Z,57.50
2019-02-25T09:09:47.582Z,62.70
2019-02-25T09:12:16.720Z,62.00
2019-02-25T09:14:45.841Z,63.80
2019-02-25T09:17:16.126Z,59.10
2019-02-25T09:19:45.324Z,62.80
2019-02-25T09:22:14.524Z,50.20
2019-02-25T09:24:43.697Z,56.70
2019-02-25T09:27:12.794Z,54.60
2019-02-25T09:29:41.884Z,54.50
2019-02-25T09:32:11.002Z,52.90
2019-02-25T09:34:40.111Z,49.80
2019-02-25T09:37:09.200Z,55.30
2019-02-25T09:39:38.314Z,52.40
2019-02-25T09:42:07.420Z,48.80
2019-02-25T09:44:37.945Z,42.10
2019-02-25T09:47:07.200Z,40.30
2019-02-25T09:49:36.274Z,49.50
2019-02-25T09:52:05.375Z,50.90
2019-02-25T09:54:34.492Z,48.20
2019-02-25T09:57:03.569Z,46.30
2019-02-25T09:59:32.759Z,43.90
2019-02-25T10:02:01.846Z,48.40
2019-02-25T10:04:30.957Z,44.80
2019-02-25T10:07:02.305Z,45.20
2019-02-25T10:09:32.432Z,46.70
2019-02-25T10:12:01.608Z,44.00
2019-02-25T10:14:30.719Z,48.40
2019-02-25T10:16:59.789Z,48.10
2019-02-25T10:19:28.872Z,45.70
2019-02-25T10:21:57.969Z,42.30
2019-02-25T10:24:27.065Z,41.10
2019-02-25T10:26:56.089Z,39.20
2019-02-25T10:29:25.209Z,45.10
2019-02-25T10:31:54.278Z,44.00
2019-02-25T10:34:24.052Z,43.60
2019-02-25T10:36:53.261Z,39.80
2019-02-25T10:39:22.370Z,42.10
2019-02-25T10:41:53.288Z,40.20
2019-02-25T10:44:22.313Z,41.10
2019-02-25T10:46:51.468Z,36.40
2019-02-25T10:49:22.222Z,42.50
2019-02-25T10:51:51.554Z,37.10
2019-02-25T10:54:21.236Z,42.50
2019-02-25T10:56:55.849Z,35.30
2019-02-25T10:59:25.828Z,36.80
2019-02-25T11:01:54.907Z,41.90
2019-02-25T11:04:26.114Z,38.20
2019-02-25T11:06:54.900Z,38.00
2019-02-25T11:09:50.382Z,38.10
2019-02-25T11:12:21.451Z,41.40
2019-02-25T11:14:50.417Z,35.40
2019-02-25T11:17:20.431Z,41.10
2019-02-25T11:19:50.392Z,41.90
2019-02-25T11:22:19.504Z,41.20
2019-02-25T11:24:49.778Z,38.20
2019-02-25T11:27:19.564Z,35.50
2019-02-25T11:29:48.656Z,35.70
2019-02-25T11:32:19.846Z,37.00
2019-02-25T11:34:48.645Z,39.50
2019-02-25T11:37:19.739Z,36.40
2019-02-25T11:39:48.535Z,35.30
2019-02-25T11:42:20.338Z,35.60
2019-02-25T11:44:48.473Z,34.80
2019-02-25T11:47:17.550Z,34.90
2019-02-25T11:49:46.788Z,34.60
2019-02-25T11:52:15.955Z,36.10
2019-02-25T11:54:45.175Z,37.00
2019-02-25T11:57:14.263Z,33.90
2019-02-25T11:59:43.329Z,33.50
2019-02-25T12:02:12.435Z,34.40
2019-02-25T12:04:41.643Z,35.30
2019-02-25T12:07:10.740Z,33.20
2019-02-25T12:09:39.837Z,38.70
2019-02-25T12:12:08.920Z,34.60
2019-02-25T12:14:38.025Z,35.50
2019-02-25T12:17:07.120Z,35.00
2019-02-25T12:19:36.651Z,36.40
2019-02-25T12:22:05.750Z,35.40
2019-02-25T12:24:34.867Z,34.60
2019-02-25T12:27:03.936Z,37.50
2019-02-25T12:29:33.077Z,34.10
2019-02-25T12:32:02.222Z,37.60
2019-02-25T12:34:31.311Z,37.00
2019-02-25T12:37:00.412Z,34.50
2019-02-25T12:39:29.507Z,35.90
2019-02-25T12:41:58.593Z,40.50
2019-02-25T12:44:27.711Z,39.50
2019-02-25T12:46:57.140Z,35.10
2019-02-25T12:49:26.239Z,37.00
2019-02-25T12:51:55.434Z,37.70
2019-02-25T12:54:24.554Z,37.50
2019-02-25T12:56:53.666Z,39.90
2019-02-25T12:59:22.797Z,39.70
2019-02-25T13:01:51.880Z,40.80
2019-02-25T13:04:20.998Z,39.50
2019-02-25T13:06:50.070Z,40.40
2019-02-25T13:09:19.193Z,38.20
2019-02-25T13:11:48.306Z,39.80
2019-02-25T13:14:17.426Z,39.80
2019-02-25T13:16:46.543Z,39.60
2019-02-25T13:19:15.647Z,40.40
2019-02-25T13:21:44.748Z,41.40
2019-02-25T13:24:13.875Z,39.60
2019-02-25T13:26:42.983Z,39.80
2019-02-25T13:29:12.178Z,36.00
2019-02-25T13:31:41.321Z,41.30
2019-02-25T13:34:10.480Z,40.00
2019-02-25T13:36:39.631Z,37.60
2019-02-25T13:39:08.809Z,39.20
2019-02-25T13:41:38.102Z,36.90
2019-02-25T13:44:07.270Z,36.90
2019-02-25T13:46:36.462Z,38.90
2019-02-25T13:49:05.561Z,41.10
2019-02-25T13:51:35.542Z,39.80
2019-02-25T13:54:04.614Z,39.80
2019-02-25T13:56:33.783Z,38.90
2019-02-25T13:59:02.974Z,39.80
2019-02-25T14:01:32.268Z,36.40
2019-02-25T14:04:01.413Z,38.20
2019-02-25T14:06:30.593Z,37.60
2019-02-25T14:08:59.745Z,37.10
2019-02-25T14:11:28.835Z,35.70
2019-02-25T14:13:57.921Z,37.90
2019-02-25T14:16:27.298Z,36.50
2019-02-25T14:18:56.361Z,36.40
2019-02-25T14:21:25.630Z,36.10
2019-02-25T14:23:57.648Z,33.50
2019-02-25T14:26:30.778Z,37.40
2019-02-25T14:29:00.560Z,39.50
2019-02-25T14:31:30.045Z,36.50
2019-02-25T14:33:59.619Z,37.20
2019-02-25T14:36:29.115Z,38.10
2019-02-25T14:38:59.449Z,40.10
2019-02-25T14:41:30.584Z,35.60
2019-02-25T14:44:00.351Z,36.30
2019-02-25T14:46:30.156Z,40.40
2019-02-25T14:49:00.170Z,36.70
2019-02-25T14:51:29.848Z,38.40
2019-02-25T14:53:59.384Z,37.50
2019-02-25T14:56:29.290Z,41.60
2019-02-25T14:59:00.611Z,39.40
2019-02-25T15:01:30.975Z,38.80
2019-02-25T15:04:04.414Z,39.70
2019-02-25T15:06:36.800Z,41.40
2019-02-25T15:09:11.595Z,37.30
2019-02-25T15:11:40.098Z,38.60
2019-02-25T15:14:10.680Z,39.90
2019-02-25T15:16:44.740Z,41.30
2019-02-25T15:19:16.242Z,41.20
2019-02-25T15:21:47.513Z,39.60
2019-02-25T15:24:19.074Z,40.80
2019-02-25T15:26:49.103Z,42.90
2019-02-25T15:29:18.915Z,40.80
2019-02-25T15:31:48.910Z,39.30
2019-02-25T15:34:20.278Z,38.20
2019-02-25T15:36:49.784Z,42.40
2019-02-25T15:39:19.606Z,41.10
2019-02-25T15:41:50.901Z,41.00
2019-02-25T15:44:20.602Z,40.90
2019-02-25T15:46:50.565Z,40.80
2019-02-25T15:49:21.765Z,42.30
2019-02-25T15:51:52.163Z,44.70
2019-02-25T15:54:22.143Z,43.20
2019-02-25T15:56:51.927Z,45.10
2019-02-25T15:59:21.671Z,46.70
2019-02-25T16:01:51.890Z,47.60
2019-02-25T16:04:22.727Z,46.70
2019-02-25T16:06:53.763Z,46.70
2019-02-25T16:09:28.086Z,49.30
2019-02-25T16:25:18.727Z,51.30
2019-02-25T16:27:49.960Z,48.90
2019-02-25T16:30:19.749Z,50.40
2019-02-25T16:32:49.814Z,51.40
2019-02-25T16:35:20.975Z,49.80
2019-02-25T16:37:50.845Z,51.00
2019-02-25T16:40:24.450Z,50.20
2019-02-25T16:42:54.909Z,50.30
2019-02-25T16:45:23.416Z,50.50
2019-02-25T16:47:52.847Z,51.00
2019-02-25T16:50:23.278Z,50.10
2019-02-25T16:52:54.386Z,51.10
2019-02-25T16:55:25.772Z,50.10
2019-02-25T16:57:55.234Z,50.30
2019-02-25T17:00:25.336Z,50.30
2019-02-25T17:02:59.235Z,50.40
2019-02-25T17:05:26.685Z,50.50
2019-02-25T17:07:56.382Z,50.70
2019-02-25T17:10:28.466Z,50.80
2019-02-25T17:12:56.702Z,50.80
2019-02-25T17:15:26.992Z,51.10
2019-02-25T17:17:58.337Z,51.20
2019-02-25T17:20:28.027Z,51.70
2019-02-25T17:22:59.659Z,51.80
2019-02-25T17:25:29.442Z,52.00
2019-02-25T17:27:59.759Z,52.50
2019-02-25T17:30:29.145Z,52.60
2019-02-25T17:32:58.677Z,53.90
2019-02-25T17:35:30.285Z,54.20
2019-02-25T17:38:00.396Z,54.30
2019-02-25T17:40:29.830Z,54.50
2019-02-25T17:42:59.251Z,54.40
2019-02-25T17:45:29.936Z,54.90
2019-02-25T17:48:03.214Z,55.30
2019-02-25T17:50:30.783Z,55.40
2019-02-25T17:53:02.752Z,55.50
2019-02-25T17:55:33.868Z,55.70
2019-02-25T17:58:02.919Z,56.20
2019-02-25T18:00:38.837Z,56.10
2019-02-25T18:03:06.373Z,56.00
2019-02-25T18:05:36.360Z,56.40
2019-02-25T18:08:08.129Z,56.50
2019-02-25T18:10:37.665Z,57.00
2019-02-25T18:13:09.087Z,56.90
2019-02-25T18:15:38.094Z,57.20
2019-02-25T18:18:09.637Z,57.50
2019-02-25T18:20:38.907Z,57.50
2019-02-25T18:23:08.415Z,57.90
2019-02-25T18:25:39.703Z,58.00
2019-02-25T18:28:10.528Z,58.30
2019-02-25T18:30:39.485Z,58.50
2019-02-25T18:33:09.320Z,58.30
2019-02-25T18:35:41.013Z,58.70
2019-02-25T18:38:09.757Z,58.60
2019-02-25T18:40:43.499Z,58.80
2019-02-25T18:43:12.286Z,59.00
2019-02-25T18:45:43.137Z,59.00
2019-02-25T18:48:12.544Z,59.00
2019-02-25T18:50:45.260Z,59.90
2019-02-25T18:53:16.114Z,60.00
2019-02-25T18:55:45.978Z,60.30
2019-02-25T18:58:16.990Z,60.30
2019-02-25T19:00:47.244Z,60.00
2019-02-25T19:03:17.251Z,60.70
2019-02-25T19:05:46.530Z,60.90
2019-02-25T19:08:19.852Z,60.80
2019-02-25T19:10:50.328Z,61.70
2019-02-25T19:13:21.003Z,62.50
2019-02-25T19:15:52.438Z,62.10
2019-02-25T19:18:21.252Z,61.70
2019-02-25T19:20:50.561Z,63.30
2019-02-25T19:23:19.785Z,64.20
2019-02-25T19:25:49.012Z,65.20
2019-02-25T19:28:19.630Z,66.40
2019-02-25T19:30:50.672Z,65.20
2019-02-25T19:33:20.804Z,64.60
2019-02-25T19:35:49.964Z,64.80
2019-02-25T19:38:19.277Z,64.70
2019-02-25T19:40:51.229Z,66.00
2019-02-25T19:43:19.474Z,68.90
2019-02-25T19:45:48.771Z,68.40
2019-02-25T19:48:19.471Z,67.90
2019-02-25T19:50:51.426Z,70.80
2019-02-25T19:53:20.334Z,74.20
2019-02-25T19:55:51.761Z,78.80
2019-02-25T19:58:20.362Z,75.50
2019-02-25T20:00:52.974Z,78.50
2019-02-25T20:03:20.685Z,77.50
2019-02-25T20:05:51.971Z,78.90
2019-02-25T20:08:20.776Z,81.50
2019-02-25T20:10:49.991Z,78.00
2019-02-25T20:13:21.854Z,83.80
2019-02-25T20:15:51.202Z,79.80
2019-02-25T20:18:20.805Z,88.90
2019-02-25T20:20:50.211Z,93.20
2019-02-25T20:23:20.257Z,88.10
2019-02-25T20:25:51.133Z,93.40
2019-02-25T20:28:22.426Z,91.60
2019-02-25T20:30:53.710Z,93.70
2019-02-25T20:33:25.656Z,96.90
2019-02-25T20:35:55.830Z,93.50
2019-02-25T20:38:26.945Z,95.70
2019-02-25T20:40:56.240Z,98.90
2019-02-25T20:43:28.133Z,98.30
2019-02-25T20:45:59.354Z,98.70
2019-02-25T20:48:28.528Z,99.90
2019-02-25T20:50:59.604Z,99.20
2019-02-25T20:53:30.094Z,99.90
2019-02-25T20:55:59.507Z,99.90
2019-02-25T20:58:28.637Z,99.90
2019-02-25T21:00:57.850Z,99.90
2019-02-25T21:03:27.636Z,99.90
2019-02-25T21:05:57.045Z,99.90
2019-02-25T21:08:26.239Z,99.90
2019-02-25T21:10:55.558Z,99.90
2019-02-25T21:13:28.489Z,99.90
2019-02-25T21:15:55.657Z,99.90
2019-02-25T21:18:26.578Z,99.90
2019-02-25T21:20:55.873Z,99.90
2019-02-25T21:23:25.000Z,99.90
2019-02-25T21:25:57.484Z,99.90
2019-02-25T21:28:27.356Z,99.90
2019-02-25T21:30:55.963Z,99.90
2019-02-25T21:33:27.283Z,99.90
2019-02-25T21:35:56.069Z,99.90
2019-02-25T21:38:26.693Z,99.90
2019-02-25T21:40:56.174Z,99.90
2019-02-25T21:43:28.427Z,99.90
2019-02-25T21:45:56.676Z,99.90
2019-02-25T21:48:27.934Z,99.90
2019-02-25T21:51:00.517Z,99.90
2019-02-25T21:53:29.164Z,99.90
2019-02-25T21:56:02.442Z,99.90
2019-02-25T21:58:29.414Z,99.90
2019-02-25T22:00:58.671Z,99.90
2019-02-25T22:03:27.817Z,99.90
2019-02-25T22:05:58.628Z,99.90
2019-02-25T22:08:29.105Z,99.90
2019-02-25T22:11:11.729Z,99.90
2019-02-25T22:13:29.800Z,99.90
2019-02-25T22:15:59.505Z,99.90
2019-02-25T22:18:31.836Z,99.90
2019-02-25T22:21:00.911Z,99.90
2019-02-25T22:23:30.635Z,99.90
2019-02-25T22:26:00.917Z,99.90
2019-02-25T22:28:31.035Z,99.90
2019-02-25T22:31:01.364Z,99.90
2019-02-25T22:33:30.693Z,99.90
2019-02-25T22:35:59.977Z,99.90
2019-02-25T22:38:29.226Z,99.90
2019-02-25T22:41:00.408Z,99.90
2019-02-25T22:43:30.122Z,99.90
2019-02-25T22:46:00.343Z,99.90
2019-02-25T22:48:30.468Z,99.90
2019-02-25T22:51:00.710Z,99.90
2019-02-25T22:53:30.675Z,99.90
2019-02-25T22:55:59.887Z,99.90
2019-02-25T22:58:29.047Z,99.90
2019-02-25T23:01:08.294Z,99.90
2019-02-25T23:03:40.966Z,99.90
2019-02-25T23:06:11.216Z,99.90
2019-02-25T23:08:42.078Z,99.90
2019-02-25T23:11:12.533Z,99.90
2019-02-25T23:13:42.778Z,99.90
2019-02-25T23:16:13.359Z,99.90
2019-02-25T23:18:43.282Z,99.90
2019-02-25T23:21:12.535Z,99.90
2019-02-25T23:23:41.719Z,99.90
2019-02-25T23:26:12.570Z,99.90
2019-02-25T23:28:41.822Z,99.90
2019-02-25T23:31:14.476Z,99.90
2019-02-25T23:33:42.289Z,99.90
2019-02-25T23:36:14.821Z,99.90
2019-02-25T23:38:43.806Z,99.90
2019-02-25T23:41:14.512Z,99.90
2019-02-25T23:43:44.526Z,99.90
2019-02-25T23:46:14.896Z,99.90
2019-02-25T23:48:46.337Z,99.90
2019-02-25T23:51:17.272Z,99.90
2019-02-25T23:53:46.558Z,99.90
2019-02-25T23:56:20.946Z,99.90
2019-02-25T23:58:49.614Z,99.90
